LOS ANGELES INTL

KLAX (LAX)
Los Angeles, California
Towered

Vatsim Metar:
KLAX 300353Z 26014KT 10SM FEW080 15/10 A3010 RMK AO2 SLP192 T01500100 $

No ATC Online

Traffic

Inbound:
Ident
Type
Name
ETA
Phase
N175MD
CRJ9
kevin KPRC
04:40 Z
Descent
SWA1124
B738/L
Steve B KBDL
04:44 Z
Descent
BAW283
H/B744/L
Liam Duffy KRDU
04:47 Z
Descent
DAL8572
B738/L
Jeremy Davis KLAX
04:50 Z
Cruse
AAL942
A320/L
Alex Roney KDFW
05:10 Z
Cruse
UAL235
B738
sagar k.s KJFK
05:04 Z
Climb
AAL700
H/B772/L
Josh Drummond KDSM
05:11 Z
Cruse
VRD413
A320/L
James Tyler KOAK
05:08 Z
Cruse
NKS185
A319/L
Nick Lascko KCLE
07:11 Z
Cruse
KLM61P
H/B744/L
Michael H
08:27 Z
Cruse
DAL1298
B752/Z
Scott Simmons KONT
07:42 Z
Cruse
DAL27GX
H/B763/X
Boris Gromov UUWW
11:23 Z
Cruse
DLH456
H/B748/L
Vasiliy Voronin UUWW
11:33 Z
Cruse
KAL081
H/B77W/L
Won Hee CHO RKSI
10:25 Z
Cruse
AAL9
H/B77W/L
David Bruce KBOS
16:22 Z
Descent

Outbound:
Ident
Type
Name
Destination
Phase
AAL394
H/B77W/L
Javier Singh KATL
YSSY
Boarding
AAL252
A320/L
William M. KSFO
KSLC
Boarding
AAL235
H/B77W/L
Alex Gowen KDFW
YSSY
Taxiing Out
DAL421
B738/L
Leroy Moh
KLAS
Climb
ALPHA8
B748
RoadDogger KMSP
KSFO
Climb